createdAt,value
2023-03-18T00:00:50.360Z,101595.06
2023-03-18T00:03:18.098Z,101591.69
2023-03-18T00:05:45.730Z,101595.13
2023-03-18T00:08:12.729Z,101601.19
2023-03-18T00:10:39.862Z,101597.81
2023-03-18T00:13:06.878Z,101600.34
2023-03-18T00:15:33.869Z,101592.72
2023-03-18T00:18:00.904Z,101602.13
2023-03-18T00:20:39.093Z,101598.81
2023-03-18T00:23:09.562Z,101603.97
2023-03-18T00:25:37.841Z,101596.25
2023-03-18T00:28:07.976Z,101599.72
2023-03-18T00:30:38.200Z,101601.41
2023-03-18T00:33:05.398Z,101606.50
2023-03-18T00:35:33.697Z,101607.31
2023-03-18T00:38:00.723Z,101609.84
2023-03-18T00:40:31.383Z,101617.50
2023-03-18T00:43:08.103Z,101609.88
2023-03-18T00:45:41.468Z,101609.00
2023-03-18T00:48:09.052Z,101610.72
2023-03-18T00:50:37.167Z,101606.50
2023-03-18T00:53:04.436Z,101613.31
2023-03-18T00:55:31.540Z,101612.53
2023-03-18T00:57:58.567Z,101615.97
2023-03-18T01:00:29.006Z,101612.63
2023-03-18T01:02:56.363Z,101612.66
2023-03-18T01:05:24.642Z,101619.53
2023-03-18T01:07:51.989Z,101617.88
2023-03-18T01:10:20.078Z,101618.69
2023-03-18T01:12:47.350Z,101623.88
2023-03-18T01:15:17.764Z,101627.34
2023-03-18T01:17:46.284Z,101619.72
2023-03-18T01:20:17.208Z,101626.53
2023-03-18T01:22:46.437Z,101619.75
2023-03-18T01:25:16.464Z,101625.81
2023-03-18T01:27:46.153Z,101637.78
2023-03-18T01:30:14.024Z,101634.41
2023-03-18T01:32:43.909Z,101636.09
2023-03-18T01:35:12.524Z,101643.88
2023-03-18T01:37:46.846Z,101639.66
2023-03-18T01:40:17.295Z,101643.16
2023-03-18T01:42:54.099Z,101646.63
2023-03-18T01:45:25.761Z,101647.53
2023-03-18T01:47:57.362Z,101647.56
2023-03-18T01:50:38.060Z,101664.75
2023-03-18T01:53:09.773Z,101665.66
2023-03-18T01:55:38.423Z,101667.41
2023-03-18T01:58:12.837Z,101665.72
2023-03-18T02:00:44.921Z,101665.75
2023-03-18T02:03:13.083Z,101668.38
2023-03-18T02:05:40.761Z,101668.38
2023-03-18T02:08:08.333Z,101672.66
2023-03-18T02:10:37.562Z,101670.09
2023-03-18T02:13:07.846Z,101676.09
2023-03-18T02:15:46.549Z,101675.28
2023-03-18T02:18:21.013Z,101679.53
2023-03-18T02:21:14.681Z,101686.44
2023-03-18T02:23:54.073Z,101695.91
2023-03-18T02:26:24.703Z,101691.63
2023-03-18T02:28:54.410Z,101696.78
2023-03-18T02:31:22.080Z,101692.47
2023-03-18T02:33:49.706Z,101697.72
2023-03-18T02:36:28.402Z,101692.63
2023-03-18T02:38:57.571Z,101705.47
2023-03-18T02:41:28.937Z,101701.16
2023-03-18T02:43:57.425Z,101705.47
2023-03-18T02:46:50.800Z,101710.59
2023-03-18T02:49:19.370Z,101715.75
2023-03-18T02:51:46.687Z,101719.22
2023-03-18T02:54:22.996Z,101719.22
2023-03-18T02:56:50.501Z,101713.34
2023-03-18T02:59:18.181Z,101717.63
2023-03-18T03:01:47.846Z,101721.88
2023-03-18T03:04:16.837Z,101722.78
2023-03-18T03:06:44.874Z,101726.25
2023-03-18T03:09:16.293Z,101729.75
2023-03-18T03:11:47.061Z,101729.78
2023-03-18T03:14:18.939Z,101734.97
2023-03-18T03:16:51.584Z,101727.38
2023-03-18T03:19:18.693Z,101735.94
2023-03-18T03:21:45.754Z,101735.09
2023-03-18T03:24:12.764Z,101734.31
2023-03-18T03:26:40.038Z,101735.22
2023-03-18T03:29:07.542Z,101742.06
2023-03-18T03:31:35.730Z,101735.25
2023-03-18T03:34:05.883Z,101740.41
2023-03-18T03:36:33.194Z,101734.41
2023-03-18T03:39:00.290Z,101743.81
2023-03-18T03:41:27.665Z,101736.16
2023-03-18T03:43:55.022Z,101735.34
2023-03-18T03:46:22.085Z,101734.50
2023-03-18T03:48:51.189Z,101739.59
2023-03-18T03:51:18.143Z,101740.50
2023-03-18T03:53:46.404Z,101743.06
2023-03-18T03:56:14.385Z,101747.34
2023-03-18T03:58:42.002Z,101749.06
2023-03-18T04:01:09.082Z,101749.06
2023-03-18T04:03:36.724Z,101747.31
2023-03-18T04:06:06.888Z,101759.28
2023-03-18T04:08:37.467Z,101750.69
2023-03-18T04:11:04.712Z,101754.06
2023-03-18T04:13:32.196Z,101755.75
2023-03-18T04:15:59.438Z,101759.16
2023-03-18T04:18:27.351Z,101750.63
2023-03-18T04:20:54.452Z,101750.59
2023-03-18T04:23:36.045Z,101758.22
2023-03-18T04:26:05.398Z,101764.19
2023-03-18T04:28:33.294Z,101763.25
2023-03-18T04:31:01.428Z,101770.97
2023-03-18T04:33:28.714Z,101770.91
2023-03-18T04:35:56.011Z,101776.88
2023-03-18T04:38:23.645Z,101771.69
2023-03-18T04:40:52.766Z,101779.31
2023-03-18T04:43:20.453Z,101780.94
2023-03-18T04:45:49.790Z,101779.13
2023-03-18T04:48:17.540Z,101785.13
2023-03-18T04:50:45.962Z,101786.75
2023-03-18T04:53:18.746Z,101778.19
2023-03-18T04:55:45.755Z,101790.06
2023-03-18T04:58:14.540Z,101785.72
2023-03-18T05:00:50.669Z,101791.63
2023-03-18T05:03:25.745Z,101793.34
2023-03-18T05:05:53.082Z,101786.41
2023-03-18T05:08:25.417Z,101799.75
2023-03-18T05:10:52.583Z,101800.28
2023-03-18T05:13:20.179Z,101803.69
2023-03-18T05:15:48.732Z,101791.59
2023-03-18T05:18:16.509Z,101799.34
2023-03-18T05:20:47.311Z,101799.31
2023-03-18T05:23:16.845Z,101808.69
2023-03-18T05:25:50.853Z,101800.94
2023-03-18T05:28:19.655Z,101808.53
2023-03-18T05:30:58.276Z,101810.09
2023-03-18T05:33:25.644Z,101807.47
2023-03-18T05:35:55.168Z,101805.63
2023-03-18T05:38:27.517Z,101799.56
2023-03-18T05:40:55.456Z,101807.16
2023-03-18T05:43:34.396Z,101808.72
2023-03-18T05:46:01.551Z,101815.25
2023-03-18T05:48:52.619Z,101805.25
2023-03-18T05:51:21.375Z,101805.81
2023-03-18T05:53:48.521Z,101813.59
2023-03-18T05:56:26.323Z,101807.53
2023-03-18T05:58:57.879Z,101806.13
2023-03-18T06:01:44.953Z,101800.50
2023-03-18T06:04:13.753Z,101811.38
2023-03-18T06:06:45.473Z,101814.44
2023-03-18T06:09:13.976Z,101818.84
2023-03-18T06:11:44.712Z,101818.56
2023-03-18T06:14:12.850Z,101817.16
2023-03-18T06:16:41.810Z,101815.41
2023-03-18T06:19:10.788Z,101825.22
2023-03-18T06:21:39.171Z,101820.19
2023-03-18T06:24:07.109Z,101824.66
2023-03-18T06:26:35.373Z,101818.94
2023-03-18T06:29:05.410Z,101823.88
2023-03-18T06:31:32.686Z,101830.78
2023-03-18T06:34:01.416Z,101816.16
2023-03-18T06:36:33.650Z,101820.63
2023-03-18T06:39:02.599Z,101822.44
2023-03-18T06:41:30.483Z,101819.38
2023-03-18T06:44:32.760Z,101823.44
2023-03-18T06:47:10.125Z,101828.16
2023-03-18T06:49:42.288Z,101821.38
2023-03-18T06:52:14.880Z,101829.94
2023-03-18T06:54:45.927Z,101831.41
2023-03-18T06:57:15.362Z,101832.75
2023-03-18T06:59:42.614Z,101829.00
2023-03-18T07:02:10.899Z,101831.84
2023-03-18T07:04:38.320Z,101833.53
2023-03-18T07:07:06.721Z,101840.22
2023-03-18T07:09:36.507Z,101833.09
2023-03-18T07:12:03.893Z,101832.84
2023-03-18T07:14:31.263Z,101842.59
2023-03-18T07:16:59.192Z,101833.75
2023-03-18T07:19:26.133Z,101833.28
2023-03-18T07:21:53.140Z,101837.69
2023-03-18T07:24:21.668Z,101839.25
2023-03-18T07:26:50.508Z,101837.50
2023-03-18T07:29:18.801Z,101829.22
2023-03-18T07:31:45.915Z,101824.50
2023-03-18T07:34:15.088Z,101826.06
2023-03-18T07:36:42.716Z,101838.56
2023-03-18T07:39:12.809Z,101827.28
2023-03-18T07:41:39.797Z,101827.56
2023-03-18T07:44:07.944Z,101824.81
2023-03-18T07:46:34.971Z,101826.78
2023-03-18T07:49:02.402Z,101821.34
2023-03-18T07:51:29.370Z,101829.94
2023-03-18T07:53:56.659Z,101824.75
2023-03-18T07:56:24.640Z,101837.97
2023-03-18T07:58:51.838Z,101834.59
2023-03-18T08:01:19.618Z,101821.66
2023-03-18T08:03:47.667Z,101827.66
2023-03-18T08:06:15.845Z,101832.69
2023-03-18T08:08:43.871Z,101829.69
2023-03-18T08:11:11.415Z,101826.44
2023-03-18T08:13:39.718Z,101831.31
2023-03-18T08:16:07.439Z,101829.66
2023-03-18T08:18:35.445Z,101825.34
2023-03-18T08:21:02.375Z,101821.84
2023-03-18T08:23:29.937Z,101821.44
2023-03-18T08:25:57.035Z,101825.72
2023-03-18T08:28:24.110Z,101825.94
2023-03-18T08:30:56.047Z,101817.13
2023-03-18T08:33:24.944Z,101820.31
2023-03-18T08:35:52.271Z,101819.09
2023-03-18T08:38:19.694Z,101817.81
2023-03-18T08:40:47.574Z,101816.13
2023-03-18T08:43:14.820Z,101820.78
2023-03-18T08:45:41.963Z,101820.28
2023-03-18T08:48:09.269Z,101817.69
2023-03-18T08:50:36.940Z,101803.81
2023-03-18T08:53:04.892Z,101808.00
2023-03-18T08:55:39.513Z,101811.06
2023-03-18T08:58:07.598Z,101804.19
2023-03-18T09:00:37.120Z,101800.31
2023-03-18T09:03:04.854Z,101805.50
2023-03-18T09:05:33.565Z,101802.50
2023-03-18T09:08:00.769Z,101803.41
2023-03-18T09:10:27.903Z,101800.63
2023-03-18T09:12:54.921Z,101806.19
2023-03-18T09:15:22.575Z,101797.44
2023-03-18T09:18:07.903Z,101794.59
2023-03-18T09:20:36.555Z,101788.19
2023-03-18T09:23:04.113Z,101790.66
2023-03-18T09:25:31.349Z,101789.88
2023-03-18T09:27:58.642Z,101788.22
2023-03-18T09:30:26.670Z,101790.03
2023-03-18T09:32:54.926Z,101789.91
2023-03-18T09:35:22.093Z,101787.72
2023-03-18T09:37:49.186Z,101782.84
2023-03-18T09:40:27.003Z,101779.97
2023-03-18T09:43:24.688Z,101782.88
2023-03-18T09:46:02.105Z,101772.72
2023-03-18T09:49:11.226Z,101769.41
2023-03-18T09:52:11.720Z,101757.56
2023-03-18T09:54:43.512Z,101760.19
2023-03-18T09:57:23.058Z,101759.63
2023-03-18T09:59:58.693Z,101770.47
2023-03-18T10:02:40.591Z,101757.59
2023-03-18T10:05:19.246Z,101747.78
2023-03-18T10:07:50.118Z,101737.25
2023-03-18T10:10:26.079Z,101749.38
2023-03-18T10:13:17.518Z,101736.84
2023-03-18T10:15:49.274Z,101736.13
2023-03-18T10:18:28.120Z,101736.25
2023-03-18T10:21:00.805Z,101738.59
2023-03-18T10:23:52.480Z,101724.13
2023-03-18T10:26:57.778Z,101727.50
2023-03-18T10:29:43.888Z,101725.69
2023-03-18T10:32:48.780Z,101726.53
2023-03-18T10:35:31.722Z,101716.53
2023-03-18T10:38:24.320Z,101718.97
2023-03-18T10:40:51.786Z,101716.94
2023-03-18T10:43:23.241Z,101719.56
2023-03-18T10:46:01.118Z,101704.63
2023-03-18T10:48:34.975Z,101717.91
2023-03-18T10:51:14.162Z,101712.47
2023-03-18T10:54:04.713Z,101709.28
2023-03-18T10:56:32.041Z,101710.19
2023-03-18T10:58:59.654Z,101712.75
2023-03-18T11:01:29.133Z,101700.03
2023-03-18T11:04:03.592Z,101696.22
2023-03-18T11:06:34.727Z,101696.44
2023-03-18T11:09:09.516Z,101692.13
2023-03-18T11:11:40.760Z,101692.63
2023-03-18T11:14:18.756Z,101697.28
2023-03-18T11:16:50.350Z,101705.19
2023-03-18T11:19:30.007Z,101700.56
2023-03-18T11:22:27.286Z,101681.72
2023-03-18T11:25:30.269Z,101689.78
2023-03-18T11:28:03.210Z,101686.44
2023-03-18T11:30:44.799Z,101690.00
2023-03-18T11:33:12.013Z,101679.53
2023-03-18T11:35:58.961Z,101688.91
2023-03-18T11:38:33.549Z,101677.34
2023-03-18T11:41:18.267Z,101683.91
2023-03-18T11:44:21.636Z,101676.53
2023-03-18T11:46:56.612Z,101669.69
2023-03-18T11:49:27.333Z,101676.19
2023-03-18T11:51:57.412Z,101672.81
2023-03-18T11:54:54.133Z,101678.44
2023-03-18T11:57:53.879Z,101681.69
2023-03-18T12:01:06.859Z,101680.75
2023-03-18T12:04:06.804Z,101680.75
2023-03-18T12:06:56.405Z,101669.88
2023-03-18T12:09:48.755Z,101690.09
2023-03-18T12:12:25.665Z,101675.13
2023-03-18T12:14:57.018Z,101667.88
2023-03-18T12:17:54.201Z,101663.66
2023-03-18T12:20:44.686Z,101670.31
2023-03-18T12:23:40.103Z,101665.66
2023-03-18T12:26:16.754Z,101660.97
2023-03-18T12:29:01.601Z,101659.31
2023-03-18T12:31:46.757Z,101647.13
2023-03-18T12:34:40.606Z,101652.41
2023-03-18T12:37:33.397Z,101646.81
2023-03-18T12:40:34.734Z,101645.50
2023-03-18T12:43:26.163Z,101631.66
2023-03-18T12:46:09.514Z,101640.16
2023-03-18T12:48:45.625Z,101637.91
2023-03-18T12:51:30.668Z,101634.09
2023-03-18T12:54:04.994Z,101635.47
2023-03-18T12:56:48.184Z,101629.38
2023-03-18T12:59:24.736Z,101622.00
2023-03-18T13:01:58.515Z,101612.47
2023-03-18T13:04:30.096Z,101618.97
2023-03-18T13:07:03.555Z,101619.28
2023-03-18T13:09:40.072Z,101618.28
2023-03-18T13:12:26.344Z,101617.13
2023-03-18T13:15:08.699Z,101610.78
2023-03-18T13:17:40.066Z,101609.34
2023-03-18T13:20:18.377Z,101605.13
2023-03-18T13:22:47.067Z,101614.88
2023-03-18T13:25:36.176Z,101602.88
2023-03-18T13:28:28.004Z,101600.63
2023-03-18T13:30:59.475Z,101609.28
2023-03-18T13:33:44.468Z,101597.69
2023-03-18T13:36:35.788Z,101595.94
2023-03-18T13:39:22.718Z,101595.34
2023-03-18T13:41:55.858Z,101597.09
2023-03-18T13:44:32.014Z,101593.44
2023-03-18T13:47:05.628Z,101589.94
2023-03-18T13:49:33.504Z,101587.41
2023-03-18T13:52:04.939Z,101586.66
2023-03-18T13:54:36.446Z,101580.16
2023-03-18T13:57:28.453Z,101576.97
2023-03-18T14:00:31.470Z,101584.13
2023-03-18T14:03:17.302Z,101582.94
2023-03-18T14:05:46.494Z,101580.59
2023-03-18T14:08:35.962Z,101581.50
2023-03-18T14:11:17.859Z,101577.59
2023-03-18T14:13:52.627Z,101564.34
2023-03-18T14:16:28.325Z,101560.66
2023-03-18T14:19:03.359Z,101564.34
2023-03-18T14:21:32.843Z,101559.56
2023-03-18T14:24:19.503Z,101566.41
2023-03-18T14:26:58.836Z,101565.78
2023-03-18T14:29:37.824Z,101561.66
2023-03-18T14:32:34.248Z,101556.84
2023-03-18T14:35:28.160Z,101555.47
2023-03-18T14:38:25.107Z,101554.22
2023-03-18T14:40:56.923Z,101543.97
2023-03-18T14:43:37.428Z,101553.56
2023-03-18T14:46:13.511Z,101549.56
2023-03-18T14:48:40.712Z,101547.25
2023-03-18T14:51:16.493Z,101539.72
2023-03-18T14:53:58.377Z,101552.06
2023-03-18T14:56:30.474Z,101545.31
2023-03-18T14:58:57.573Z,101549.88
2023-03-18T15:01:33.067Z,101544.03
2023-03-18T15:04:01.728Z,101550.00
2023-03-18T15:06:30.069Z,101551.03
2023-03-18T15:08:59.310Z,101549.50
2023-03-18T15:11:26.669Z,101546.22
2023-03-18T15:14:00.034Z,101546.50
2023-03-18T15:16:30.829Z,101534.72
2023-03-18T15:18:57.923Z,101544.44
2023-03-18T15:21:30.569Z,101531.72
2023-03-18T15:24:03.659Z,101538.84
2023-03-18T15:26:35.159Z,101517.06
2023-03-18T15:29:24.319Z,101539.22
2023-03-18T15:31:53.156Z,101537.66
2023-03-18T15:34:30.634Z,101539.66
2023-03-18T15:37:01.019Z,101532.97
2023-03-18T15:39:32.282Z,101539.19
2023-03-18T15:42:00.790Z,101539.38
2023-03-18T15:44:36.576Z,101530.09
2023-03-18T15:47:17.081Z,101524.38
2023-03-18T15:49:55.870Z,101527.22
2023-03-18T15:52:31.185Z,101524.09
2023-03-18T15:55:01.362Z,101529.38
2023-03-18T15:57:38.353Z,101520.09
2023-03-18T16:03:22.393Z,101531.72
2023-03-18T16:05:51.510Z,101530.19
2023-03-18T16:08:21.122Z,101523.47
2023-03-18T16:10:51.217Z,101532.25
2023-03-18T16:13:25.216Z,101528.06
2023-03-18T16:15:53.197Z,101532.47
2023-03-18T16:18:21.436Z,101537.84
2023-03-18T16:20:49.742Z,101530.22
2023-03-18T16:23:17.620Z,101526.91
2023-03-18T16:25:56.239Z,101527.06
2023-03-18T16:28:28.188Z,101532.25
2023-03-18T16:30:58.531Z,101526.41
2023-03-18T16:33:26.214Z,101522.22
2023-03-18T16:35:58.674Z,101515.50
2023-03-18T16:38:27.285Z,101523.25
2023-03-18T16:40:55.831Z,101518.16
2023-03-18T16:43:24.812Z,101525.03
2023-03-18T16:45:52.324Z,101519.13
2023-03-18T16:48:21.952Z,101519.19
2023-03-18T16:50:50.872Z,101516.81
2023-03-18T16:53:22.313Z,101519.41
2023-03-18T16:55:53.055Z,101515.16
2023-03-18T16:58:37.154Z,101519.53
2023-03-18T17:01:18.053Z,101513.69
2023-03-18T17:03:52.223Z,101496.06
2023-03-18T17:06:20.317Z,101506.13
2023-03-18T17:08:56.842Z,101515.59
2023-03-18T17:11:51.614Z,101513.09
2023-03-18T17:14:32.174Z,101514.09
2023-03-18T17:17:09.161Z,101505.56
2023-03-18T17:19:36.384Z,101509.19
2023-03-18T17:22:17.727Z,101510.13
2023-03-18T17:24:44.956Z,101505.16
2023-03-18T17:27:28.915Z,101496.66
2023-03-18T17:30:06.123Z,101501.03
2023-03-18T17:32:34.266Z,101502.03
2023-03-18T17:38:37.911Z,101504.84
2023-03-18T17:41:20.644Z,101512.69
2023-03-18T17:44:01.400Z,101501.63
2023-03-18T17:47:33.600Z,101510.34
2023-03-18T17:50:13.970Z,101505.25
2023-03-18T17:52:44.274Z,101514.72
2023-03-18T17:55:17.452Z,101505.28
2023-03-18T17:57:53.332Z,101511.44
2023-03-18T18:00:22.904Z,101520.00
2023-03-18T18:02:58.810Z,101509.06
2023-03-18T18:09:15.785Z,101513.03
2023-03-18T18:11:48.740Z,101513.97
2023-03-18T18:14:29.230Z,101495.50
2023-03-18T18:16:58.086Z,101515.88
2023-03-18T18:19:25.669Z,101521.13
2023-03-18T18:21:53.151Z,101515.13
2023-03-18T18:24:34.833Z,101520.41
2023-03-18T18:27:03.604Z,101504.34
2023-03-18T18:29:35.014Z,101508.56
2023-03-18T18:32:02.501Z,101509.44
2023-03-18T18:34:29.883Z,101496.03
2023-03-18T18:36:57.158Z,101507.91
2023-03-18T18:39:24.325Z,101507.03
2023-03-18T18:41:51.507Z,101509.63
2023-03-18T18:44:19.256Z,101499.34
2023-03-18T18:46:46.917Z,101494.31
2023-03-18T18:49:24.554Z,101500.31
2023-03-18T18:51:57.350Z,101497.84
2023-03-18T18:54:24.975Z,101498.78
2023-03-18T18:56:52.660Z,101498.06
2023-03-18T18:59:23.444Z,101500.59
2023-03-18T19:01:54.481Z,101492.09
2023-03-18T19:04:24.273Z,101491.25
2023-03-18T19:06:52.687Z,101478.59
2023-03-18T19:09:33.921Z,101493.25
2023-03-18T19:12:10.997Z,101484.75
2023-03-18T19:14:47.826Z,101469.75
2023-03-18T19:17:19.699Z,101478.13
2023-03-18T19:19:52.552Z,101482.28
2023-03-18T19:22:22.305Z,101479.78
2023-03-18T19:24:55.860Z,101475.72
2023-03-18T19:27:39.625Z,101488.59
2023-03-18T19:30:22.129Z,101466.38
2023-03-18T19:32:54.384Z,101466.56
2023-03-18T19:35:34.590Z,101463.94
2023-03-18T19:38:16.615Z,101461.50
2023-03-18T19:41:00.441Z,101457.31
2023-03-18T19:43:35.057Z,101456.53
2023-03-18T19:46:11.030Z,101454.97
2023-03-18T19:48:47.629Z,101453.28
2023-03-18T19:51:23.786Z,101459.19
2023-03-18T19:54:05.628Z,101452.47
2023-03-18T19:56:32.859Z,101452.59
2023-03-18T19:58:59.756Z,101447.50
2023-03-18T20:01:27.788Z,101452.72
2023-03-18T20:03:58.924Z,101448.47
2023-03-18T20:06:26.428Z,101454.44
2023-03-18T20:08:53.599Z,101451.03
2023-03-18T20:11:23.576Z,101451.94
2023-03-18T20:13:50.949Z,101443.41
2023-03-18T20:16:19.532Z,101446.16
2023-03-18T20:18:46.463Z,101436.75
2023-03-18T20:21:22.434Z,101441.00
2023-03-18T20:23:51.001Z,101437.72
2023-03-18T20:26:18.206Z,101429.28
2023-03-18T20:28:45.817Z,101436.97
2023-03-18T20:31:12.930Z,101425.81
2023-03-18T20:33:39.913Z,101428.41
2023-03-18T20:36:13.683Z,101424.16
2023-03-18T20:38:41.083Z,101424.25
2023-03-18T20:41:08.121Z,101425.19
2023-03-18T20:43:35.206Z,101426.88
2023-03-18T20:46:02.446Z,101432.03
2023-03-18T20:48:34.534Z,101426.97
2023-03-18T20:51:16.358Z,101432.06
2023-03-18T20:53:43.406Z,101425.25
2023-03-18T20:56:11.001Z,101423.94
2023-03-18T20:58:38.298Z,101428.91
2023-03-18T21:01:09.527Z,101428.91
2023-03-18T21:03:37.800Z,101422.13
2023-03-18T21:06:06.712Z,101423.94
2023-03-18T21:08:34.390Z,101419.00
2023-03-18T21:11:02.306Z,101419.78
2023-03-18T21:13:39.251Z,101412.19
2023-03-18T21:16:13.094Z,101407.16
2023-03-18T21:18:45.577Z,101416.69
2023-03-18T21:21:39.628Z,101412.56
2023-03-18T21:24:23.728Z,101409.19
2023-03-18T21:27:03.806Z,101415.16
2023-03-18T21:29:32.654Z,101408.41
2023-03-18T21:32:00.260Z,101404.09
2023-03-18T21:34:27.865Z,101409.25
2023-03-18T21:36:54.746Z,101405.88
2023-03-18T21:39:21.956Z,101396.53
2023-03-18T21:41:48.978Z,101407.72
2023-03-18T21:44:16.033Z,101400.97
2023-03-18T21:46:43.022Z,101404.44
2023-03-18T21:49:10.354Z,101405.44
2023-03-18T21:51:39.821Z,101383.44
2023-03-18T21:54:18.692Z,101396.06
2023-03-18T21:56:46.047Z,101397.81
2023-03-18T21:59:13.319Z,101397.03
2023-03-18T22:01:40.827Z,101389.56
2023-03-18T22:04:09.595Z,101384.50
2023-03-18T22:06:36.827Z,101382.88
2023-03-18T22:09:04.402Z,101374.47
2023-03-18T22:11:31.869Z,101399.78
2023-03-18T22:13:59.159Z,101371.91
2023-03-18T22:16:26.261Z,101371.16
2023-03-18T22:18:53.618Z,101388.03
2023-03-18T22:21:25.380Z,101367.69
2023-03-18T22:23:53.209Z,101381.13
2023-03-18T22:26:24.460Z,101372.50
2023-03-18T22:29:05.556Z,101364.09
2023-03-18T22:31:53.236Z,101381.19
2023-03-18T22:34:23.461Z,101373.56
2023-03-18T22:36:50.712Z,101387.22
2023-03-18T22:39:18.026Z,101360.19
2023-03-18T22:41:45.127Z,101385.47
2023-03-18T22:44:22.533Z,101345.97
2023-03-18T22:46:49.735Z,101366.09
2023-03-18T22:49:18.683Z,101382.16
2023-03-18T22:51:46.077Z,101377.09
2023-03-18T22:54:18.419Z,101373.91
2023-03-18T22:56:45.693Z,101370.50
2023-03-18T22:59:14.500Z,101389.28
2023-03-18T23:01:41.454Z,101378.16
2023-03-18T23:04:12.312Z,101384.19
2023-03-18T23:06:40.239Z,101360.41
2023-03-18T23:09:07.460Z,101355.47
2023-03-18T23:11:34.952Z,101364.78
2023-03-18T23:14:03.719Z,101365.75
2023-03-18T23:16:31.180Z,101337.84
2023-03-18T23:18:58.537Z,101372.47
2023-03-18T23:21:26.392Z,101361.41
2023-03-18T23:23:56.199Z,101350.53
2023-03-18T23:26:26.340Z,101347.25
2023-03-18T23:28:53.507Z,101317.63
2023-03-18T23:31:20.914Z,101338.06
2023-03-18T23:33:48.013Z,101357.53
2023-03-18T23:36:15.323Z,101357.56
2023-03-18T23:38:42.649Z,101311.19
2023-03-18T23:41:12.626Z,101349.06
2023-03-18T23:43:39.739Z,101315.28
2023-03-18T23:46:07.551Z,101299.25
2023-03-18T23:48:34.523Z,101300.91
2023-03-18T23:51:02.422Z,101327.91
2023-03-18T23:53:29.448Z,101307.69
2023-03-18T23:55:56.821Z,101307.63
2023-03-18T23:58:23.821Z,101312.56
